Toronto Pearson, Ontario

6:08 AM EDT on June 03, 2015 (GMT -0400)
Toronto-Pearson International | | Change Station
CLOSE
Current Station
Airport
Location: Toronto Pearson,
Elevation: 568 ft
Nearby Weather Stations

Elev 568 ft 43.68 °N, 79.63 °W | Updated 8 minutes ago

Partly Cloudy
Partly Cloudy
48 °F
Feels Like 48 °F
N
6
Wind Variable Wind from NE

Today is forecast to be nearly the same temperature as yesterday.

Today
High -- | Low -- °F
--% Chance of Precip.
Yesterday
High -- | Low -- °F
Precip. -- in
5:39 AM 8:54 PM
Full, 99% visible
Pressure 30.23 in
Visibility 15.0 miles
Clouds Few 25000 ft
Dew Point 43 °F
Humidity 82%
Rainfall 0.00 in
Snow Depth Not available.
UV 0 out of 12
Pollen Not available.
Air Quality Not available.
Flu Activity Not available.
METAR CYYZ 031000Z 04005KT 15SM FEW250 09/06 A3022 RMK CI1 SLP236

More Conditions Fewer Conditions

Pressure 30.23 in
Visibility 15.0 miles
Clouds Few 25000 ft
Dew Point 43 °F
Humidity 82%
Rainfall 0.00 in
Snow Depth Not available.
UV 0 out of 12
Pollen Not available.
Air Quality Not available.
Flu Activity Not available.
METAR CYYZ 031000Z 04005KT 15SM FEW250 09/06 A3022 RMK CI1 SLP236

More Conditions Fewer Conditions

10-Day Weather Forecast

×

Almanac

Astronomy

Jun. 03, 2015 Rise Set
Actual Time
Civil Twilight
Nautical Twilight
Astronomical Twilight
Moon
Length of Visible Light
Length of Day
Tomorrow will be .
, % of the Moon is Illuminated

Today's Extremes

Country Highs Country Lows

Community

WunderPhotos

Upload Photos

1,826,198 photos uploaded!

WunderBlogs® & News

Nearby

Air Quality

  Air Quality AQ Index Pollutant
Not available.

Snow Depth

Station Depth Elevation

Earthquake Activity

City Distance Mag. Time & Date
Minimum magnitude displayed is 2.5.

Coastal Water Temperatures

Place Temperature

Stations

Nearby Weather Stations

Station Location Temp. Windchill Dew Point Humidity Wind Precip. Elev Updated Type